sensor_id;sensor_type;location;lat;lon;timestamp;P1;durP1;ratioP1;P2;durP2;ratioP2
11443;SDS011;5778;47.856;12.154;2023-06-04T00:02:25;2.77;;;2.30;;
11443;SDS011;5778;47.856;12.154;2023-06-04T00:04:52;4.30;;;2.50;;
11443;SDS011;5778;47.856;12.154;2023-06-04T00:07:19;2.30;;;2.10;;
11443;SDS011;5778;47.856;12.154;2023-06-04T00:09:46;2.60;;;2.40;;
11443;SDS011;5778;47.856;12.154;2023-06-04T00:12:13;2.90;;;2.50;;
11443;SDS011;5778;47.856;12.154;2023-06-04T00:14:40;2.63;;;2.30;;
11443;SDS011;5778;47.856;12.154;2023-06-04T00:17:07;3.43;;;2.20;;
11443;SDS011;5778;47.856;12.154;2023-06-04T00:19:37;2.83;;;2.40;;
11443;SDS011;5778;47.856;12.154;2023-06-04T00:22:05;3.43;;;2.13;;
11443;SDS011;5778;47.856;12.154;2023-06-04T00:24:32;2.40;;;2.20;;
11443;SDS011;5778;47.856;12.154;2023-06-04T00:26:59;3.27;;;2.33;;
11443;SDS011;5778;47.856;12.154;2023-06-04T00:29:26;3.80;;;2.53;;
11443;SDS011;5778;47.856;12.154;2023-06-04T00:31:53;3.10;;;2.30;;
11443;SDS011;5778;47.856;12.154;2023-06-04T00:34:19;2.70;;;2.20;;
11443;SDS011;5778;47.856;12.154;2023-06-04T00:36:48;4.33;;;2.37;;
11443;SDS011;5778;47.856;12.154;2023-06-04T00:39:15;2.43;;;2.23;;
11443;SDS011;5778;47.856;12.154;2023-06-04T00:41:41;2.10;;;1.90;;
11443;SDS011;5778;47.856;12.154;2023-06-04T00:44:08;2.27;;;2.07;;
11443;SDS011;5778;47.856;12.154;2023-06-04T00:46:36;3.13;;;2.30;;
11443;SDS011;5778;47.856;12.154;2023-06-04T00:49:04;3.90;;;1.97;;
11443;SDS011;5778;47.856;12.154;2023-06-04T00:51:31;4.00;;;2.27;;
11443;SDS011;5778;47.856;12.154;2023-06-04T00:54:00;3.77;;;2.27;;
11443;SDS011;5778;47.856;12.154;2023-06-04T00:56:33;2.13;;;2.03;;
11443;SDS011;5778;47.856;12.154;2023-06-04T00:59:02;2.90;;;2.10;;
11443;SDS011;5778;47.856;12.154;2023-06-04T01:01:31;3.23;;;2.53;;
11443;SDS011;5778;47.856;12.154;2023-06-04T01:04:06;2.53;;;2.33;;
11443;SDS011;5778;47.856;12.154;2023-06-04T01:06:39;2.67;;;2.40;;
11443;SDS011;5778;47.856;12.154;2023-06-04T01:09:10;2.73;;;2.23;;
11443;SDS011;5778;47.856;12.154;2023-06-04T01:11:38;2.40;;;1.97;;
11443;SDS011;5778;47.856;12.154;2023-06-04T01:14:06;2.60;;;2.27;;
11443;SDS011;5778;47.856;12.154;2023-06-04T01:16:35;2.67;;;2.47;;
11443;SDS011;5778;47.856;12.154;2023-06-04T01:19:11;2.67;;;2.17;;
11443;SDS011;5778;47.856;12.154;2023-06-04T01:21:56;3.07;;;2.43;;
11443;SDS011;5778;47.856;12.154;2023-06-04T01:24:32;2.30;;;2.10;;
11443;SDS011;5778;47.856;12.154;2023-06-04T01:27:03;2.80;;;2.50;;
11443;SDS011;5778;47.856;12.154;2023-06-04T01:29:31;2.70;;;2.50;;
11443;SDS011;5778;47.856;12.154;2023-06-04T01:31:58;4.07;;;2.50;;
11443;SDS011;5778;47.856;12.154;2023-06-04T01:34:25;3.83;;;2.43;;
11443;SDS011;5778;47.856;12.154;2023-06-04T01:36:52;3.73;;;2.73;;
11443;SDS011;5778;47.856;12.154;2023-06-04T01:39:19;2.27;;;2.07;;
11443;SDS011;5778;47.856;12.154;2023-06-04T01:41:48;2.60;;;2.23;;
11443;SDS011;5778;47.856;12.154;2023-06-04T01:44:14;3.63;;;2.60;;
11443;SDS011;5778;47.856;12.154;2023-06-04T01:46:41;3.00;;;2.57;;
11443;SDS011;5778;47.856;12.154;2023-06-04T01:49:08;2.67;;;2.30;;
11443;SDS011;5778;47.856;12.154;2023-06-04T01:51:35;2.30;;;2.10;;
11443;SDS011;5778;47.856;12.154;2023-06-04T01:54:02;2.73;;;2.27;;
11443;SDS011;5778;47.856;12.154;2023-06-04T01:56:29;2.83;;;2.37;;
11443;SDS011;5778;47.856;12.154;2023-06-04T01:58:58;2.00;;;1.90;;
11443;SDS011;5778;47.856;12.154;2023-06-04T02:01:26;2.40;;;2.20;;
11443;SDS011;5778;47.856;12.154;2023-06-04T02:03:53;3.80;;;2.90;;
11443;SDS011;5778;47.856;12.154;2023-06-04T02:06:20;3.30;;;2.30;;
11443;SDS011;5778;47.856;12.154;2023-06-04T02:08:47;2.60;;;2.40;;
11443;SDS011;5778;47.856;12.154;2023-06-04T02:11:13;2.60;;;2.10;;
11443;SDS011;5778;47.856;12.154;2023-06-04T02:13:40;2.80;;;2.53;;
11443;SDS011;5778;47.856;12.154;2023-06-04T02:16:09;3.10;;;2.23;;
11443;SDS011;5778;47.856;12.154;2023-06-04T02:18:36;2.70;;;2.10;;
11443;SDS011;5778;47.856;12.154;2023-06-04T02:21:03;3.57;;;2.43;;
11443;SDS011;5778;47.856;12.154;2023-06-04T02:23:30;2.40;;;2.20;;
11443;SDS011;5778;47.856;12.154;2023-06-04T02:25:57;2.20;;;2.00;;
11443;SDS011;5778;47.856;12.154;2023-06-04T02:28:24;2.73;;;2.53;;
11443;SDS011;5778;47.856;12.154;2023-06-04T02:30:51;2.50;;;2.30;;
11443;SDS011;5778;47.856;12.154;2023-06-04T02:33:19;2.60;;;2.10;;
11443;SDS011;5778;47.856;12.154;2023-06-04T02:35:47;2.83;;;2.20;;
11443;SDS011;5778;47.856;12.154;2023-06-04T02:38:14;2.63;;;2.27;;
11443;SDS011;5778;47.856;12.154;2023-06-04T02:40:41;2.83;;;2.50;;
11443;SDS011;5778;47.856;12.154;2023-06-04T02:43:08;2.10;;;1.80;;
11443;SDS011;5778;47.856;12.154;2023-06-04T02:45:35;2.57;;;2.37;;
11443;SDS011;5778;47.856;12.154;2023-06-04T02:48:02;2.40;;;2.20;;
11443;SDS011;5778;47.856;12.154;2023-06-04T02:50:30;4.30;;;2.60;;
11443;SDS011;5778;47.856;12.154;2023-06-04T02:52:57;2.33;;;2.13;;
11443;SDS011;5778;47.856;12.154;2023-06-04T02:55:24;2.20;;;2.00;;
11443;SDS011;5778;47.856;12.154;2023-06-04T02:57:51;3.33;;;2.33;;
11443;SDS011;5778;47.856;12.154;2023-06-04T03:00:18;2.53;;;2.33;;
11443;SDS011;5778;47.856;12.154;2023-06-04T03:02:46;3.17;;;2.53;;
11443;SDS011;5778;47.856;12.154;2023-06-04T03:05:15;2.50;;;2.20;;
11443;SDS011;5778;47.856;12.154;2023-06-04T03:07:44;2.40;;;2.20;;
11443;SDS011;5778;47.856;12.154;2023-06-04T03:10:12;4.07;;;2.30;;
11443;SDS011;5778;47.856;12.154;2023-06-04T03:12:40;2.10;;;2.00;;
11443;SDS011;5778;47.856;12.154;2023-06-04T03:15:08;3.03;;;2.57;;
11443;SDS011;5778;47.856;12.154;2023-06-04T03:17:36;3.23;;;2.40;;
11443;SDS011;5778;47.856;12.154;2023-06-04T03:20:03;4.07;;;2.37;;
11443;SDS011;5778;47.856;12.154;2023-06-04T03:22:32;4.87;;;2.60;;
11443;SDS011;5778;47.856;12.154;2023-06-04T03:25:02;3.23;;;2.40;;
11443;SDS011;5778;47.856;12.154;2023-06-04T03:27:30;2.53;;;2.30;;
11443;SDS011;5778;47.856;12.154;2023-06-04T03:29:58;2.53;;;2.30;;
11443;SDS011;5778;47.856;12.154;2023-06-04T03:32:26;3.87;;;2.80;;
11443;SDS011;5778;47.856;12.154;2023-06-04T03:34:53;3.67;;;2.57;;
11443;SDS011;5778;47.856;12.154;2023-06-04T03:37:20;3.43;;;2.70;;
11443;SDS011;5778;47.856;12.154;2023-06-04T03:39:47;2.77;;;2.57;;
11443;SDS011;5778;47.856;12.154;2023-06-04T03:42:17;3.93;;;2.50;;
11443;SDS011;5778;47.856;12.154;2023-06-04T03:44:45;2.63;;;2.43;;
11443;SDS011;5778;47.856;12.154;2023-06-04T03:47:13;3.43;;;2.33;;
11443;SDS011;5778;47.856;12.154;2023-06-04T03:49:41;3.27;;;2.30;;
11443;SDS011;5778;47.856;12.154;2023-06-04T03:52:08;3.30;;;2.47;;
11443;SDS011;5778;47.856;12.154;2023-06-04T03:54:37;2.90;;;2.60;;
11443;SDS011;5778;47.856;12.154;2023-06-04T03:57:04;4.57;;;2.90;;
11443;SDS011;5778;47.856;12.154;2023-06-04T03:59:33;5.23;;;2.77;;
11443;SDS011;5778;47.856;12.154;2023-06-04T04:02:00;2.73;;;2.47;;
11443;SDS011;5778;47.856;12.154;2023-06-04T04:04:28;2.50;;;2.30;;
11443;SDS011;5778;47.856;12.154;2023-06-04T04:06:55;3.33;;;2.23;;
11443;SDS011;5778;47.856;12.154;2023-06-04T04:09:23;2.83;;;2.40;;
11443;SDS011;5778;47.856;12.154;2023-06-04T04:11:50;2.70;;;2.50;;
11443;SDS011;5778;47.856;12.154;2023-06-04T04:14:17;2.53;;;2.33;;
11443;SDS011;5778;47.856;12.154;2023-06-04T04:16:46;2.67;;;2.47;;
11443;SDS011;5778;47.856;12.154;2023-06-04T04:19:14;3.60;;;2.43;;
11443;SDS011;5778;47.856;12.154;2023-06-04T04:21:42;5.50;;;2.83;;
11443;SDS011;5778;47.856;12.154;2023-06-04T04:24:09;3.10;;;2.60;;
11443;SDS011;5778;47.856;12.154;2023-06-04T04:26:36;2.87;;;2.57;;
11443;SDS011;5778;47.856;12.154;2023-06-04T04:29:03;3.10;;;2.80;;
11443;SDS011;5778;47.856;12.154;2023-06-04T04:31:34;4.60;;;2.80;;
11443;SDS011;5778;47.856;12.154;2023-06-04T04:34:03;5.80;;;2.63;;
11443;SDS011;5778;47.856;12.154;2023-06-04T04:36:34;3.07;;;2.73;;
11443;SDS011;5778;47.856;12.154;2023-06-04T04:39:05;4.27;;;2.70;;
11443;SDS011;5778;47.856;12.154;2023-06-04T04:41:34;3.20;;;2.90;;
11443;SDS011;5778;47.856;12.154;2023-06-04T04:44:02;4.57;;;2.83;;
11443;SDS011;5778;47.856;12.154;2023-06-04T04:46:30;3.90;;;3.07;;
11443;SDS011;5778;47.856;12.154;2023-06-04T04:48:57;5.27;;;3.30;;
11443;SDS011;5778;47.856;12.154;2023-06-04T04:51:26;4.30;;;3.13;;
11443;SDS011;5778;47.856;12.154;2023-06-04T04:53:54;3.47;;;2.60;;
11443;SDS011;5778;47.856;12.154;2023-06-04T04:56:23;3.97;;;3.27;;
11443;SDS011;5778;47.856;12.154;2023-06-04T04:58:51;5.57;;;3.30;;
11443;SDS011;5778;47.856;12.154;2023-06-04T05:01:20;3.47;;;3.17;;
11443;SDS011;5778;47.856;12.154;2023-06-04T05:03:48;3.50;;;3.20;;
11443;SDS011;5778;47.856;12.154;2023-06-04T05:06:16;3.23;;;2.80;;
11443;SDS011;5778;47.856;12.154;2023-06-04T05:08:45;3.53;;;2.73;;
11443;SDS011;5778;47.856;12.154;2023-06-04T05:11:14;4.23;;;3.20;;
11443;SDS011;5778;47.856;12.154;2023-06-04T05:13:41;3.37;;;3.07;;
11443;SDS011;5778;47.856;12.154;2023-06-04T05:16:10;3.03;;;2.63;;
11443;SDS011;5778;47.856;12.154;2023-06-04T05:18:38;4.57;;;2.60;;
11443;SDS011;5778;47.856;12.154;2023-06-04T05:21:11;4.03;;;2.83;;
11443;SDS011;5778;47.856;12.154;2023-06-04T05:23:45;4.50;;;2.70;;
11443;SDS011;5778;47.856;12.154;2023-06-04T05:26:14;5.57;;;2.80;;
11443;SDS011;5778;47.856;12.154;2023-06-04T05:28:42;2.93;;;2.70;;
11443;SDS011;5778;47.856;12.154;2023-06-04T05:31:11;3.70;;;2.70;;
11443;SDS011;5778;47.856;12.154;2023-06-04T05:33:39;3.77;;;3.03;;
11443;SDS011;5778;47.856;12.154;2023-06-04T05:36:10;3.70;;;3.40;;
11443;SDS011;5778;47.856;12.154;2023-06-04T05:38:46;6.00;;;3.00;;
11443;SDS011;5778;47.856;12.154;2023-06-04T05:41:15;3.70;;;3.20;;
11443;SDS011;5778;47.856;12.154;2023-06-04T05:43:43;3.83;;;2.97;;
11443;SDS011;5778;47.856;12.154;2023-06-04T05:46:11;4.30;;;3.03;;
11443;SDS011;5778;47.856;12.154;2023-06-04T05:48:39;3.87;;;3.20;;
11443;SDS011;5778;47.856;12.154;2023-06-04T05:51:06;3.57;;;3.00;;
11443;SDS011;5778;47.856;12.154;2023-06-04T05:53:34;3.10;;;2.90;;
11443;SDS011;5778;47.856;12.154;2023-06-04T05:56:03;4.93;;;3.10;;
11443;SDS011;5778;47.856;12.154;2023-06-04T05:58:32;3.77;;;3.47;;
11443;SDS011;5778;47.856;12.154;2023-06-04T06:00:59;4.67;;;3.80;;
11443;SDS011;5778;47.856;12.154;2023-06-04T06:03:27;3.87;;;3.30;;
11443;SDS011;5778;47.856;12.154;2023-06-04T06:05:54;4.67;;;3.20;;
11443;SDS011;5778;47.856;12.154;2023-06-04T06:08:25;4.23;;;3.53;;
11443;SDS011;5778;47.856;12.154;2023-06-04T06:10:52;4.77;;;3.00;;
11443;SDS011;5778;47.856;12.154;2023-06-04T06:13:22;3.30;;;3.00;;
11443;SDS011;5778;47.856;12.154;2023-06-04T06:15:48;3.90;;;3.17;;
11443;SDS011;5778;47.856;12.154;2023-06-04T06:18:16;4.97;;;3.60;;
11443;SDS011;5778;47.856;12.154;2023-06-04T06:20:42;4.30;;;3.23;;
11443;SDS011;5778;47.856;12.154;2023-06-04T06:23:10;4.47;;;3.13;;
11443;SDS011;5778;47.856;12.154;2023-06-04T06:25:43;6.80;;;3.60;;
11443;SDS011;5778;47.856;12.154;2023-06-04T06:28:16;4.27;;;3.40;;
11443;SDS011;5778;47.856;12.154;2023-06-04T06:30:46;3.50;;;3.20;;
11443;SDS011;5778;47.856;12.154;2023-06-04T06:33:13;3.30;;;3.10;;
11443;SDS011;5778;47.856;12.154;2023-06-04T06:35:41;3.83;;;3.17;;
11443;SDS011;5778;47.856;12.154;2023-06-04T06:38:11;3.47;;;3.13;;
11443;SDS011;5778;47.856;12.154;2023-06-04T06:40:40;5.53;;;3.73;;
11443;SDS011;5778;47.856;12.154;2023-06-04T06:43:07;4.00;;;3.47;;
11443;SDS011;5778;47.856;12.154;2023-06-04T06:45:35;4.07;;;3.50;;
11443;SDS011;5778;47.856;12.154;2023-06-04T06:48:04;7.17;;;3.80;;
11443;SDS011;5778;47.856;12.154;2023-06-04T06:50:31;4.67;;;3.47;;
11443;SDS011;5778;47.856;12.154;2023-06-04T06:52:58;4.57;;;3.47;;
11443;SDS011;5778;47.856;12.154;2023-06-04T06:55:25;5.37;;;3.53;;
11443;SDS011;5778;47.856;12.154;2023-06-04T06:57:52;6.30;;;3.03;;
11443;SDS011;5778;47.856;12.154;2023-06-04T07:00:19;4.63;;;3.27;;
11443;SDS011;5778;47.856;12.154;2023-06-04T07:02:46;7.00;;;4.00;;
11443;SDS011;5778;47.856;12.154;2023-06-04T07:05:14;4.47;;;3.53;;
11443;SDS011;5778;47.856;12.154;2023-06-04T07:07:42;5.37;;;3.37;;
11443;SDS011;5778;47.856;12.154;2023-06-04T07:10:09;5.43;;;3.40;;
11443;SDS011;5778;47.856;12.154;2023-06-04T07:12:36;4.10;;;3.63;;
11443;SDS011;5778;47.856;12.154;2023-06-04T07:15:04;3.90;;;3.30;;
11443;SDS011;5778;47.856;12.154;2023-06-04T07:17:32;4.50;;;3.90;;
11443;SDS011;5778;47.856;12.154;2023-06-04T07:19:59;3.70;;;3.40;;
11443;SDS011;5778;47.856;12.154;2023-06-04T07:22:27;5.67;;;3.40;;
11443;SDS011;5778;47.856;12.154;2023-06-04T07:24:54;3.90;;;3.53;;
11443;SDS011;5778;47.856;12.154;2023-06-04T07:27:21;4.57;;;3.43;;
11443;SDS011;5778;47.856;12.154;2023-06-04T07:29:48;3.67;;;3.37;;
11443;SDS011;5778;47.856;12.154;2023-06-04T07:32:15;4.87;;;3.50;;
11443;SDS011;5778;47.856;12.154;2023-06-04T07:34:41;3.73;;;3.30;;
11443;SDS011;5778;47.856;12.154;2023-06-04T07:37:08;5.43;;;3.70;;
11443;SDS011;5778;47.856;12.154;2023-06-04T07:39:37;3.57;;;3.27;;
11443;SDS011;5778;47.856;12.154;2023-06-04T07:42:05;5.60;;;3.77;;
11443;SDS011;5778;47.856;12.154;2023-06-04T07:44:32;3.90;;;3.20;;
11443;SDS011;5778;47.856;12.154;2023-06-04T07:46:59;5.10;;;3.73;;
11443;SDS011;5778;47.856;12.154;2023-06-04T07:49:26;3.80;;;3.50;;
11443;SDS011;5778;47.856;12.154;2023-06-04T07:51:53;4.07;;;3.70;;
11443;SDS011;5778;47.856;12.154;2023-06-04T07:54:20;4.40;;;3.60;;
11443;SDS011;5778;47.856;12.154;2023-06-04T07:56:48;5.53;;;3.80;;
11443;SDS011;5778;47.856;12.154;2023-06-04T07:59:20;4.50;;;3.30;;
11443;SDS011;5778;47.856;12.154;2023-06-04T08:01:47;4.10;;;3.70;;
11443;SDS011;5778;47.856;12.154;2023-06-04T08:04:15;4.33;;;3.10;;
11443;SDS011;5778;47.856;12.154;2023-06-04T08:06:42;5.87;;;3.70;;
11443;SDS011;5778;47.856;12.154;2023-06-04T08:09:09;4.37;;;3.50;;
11443;SDS011;5778;47.856;12.154;2023-06-04T08:11:36;3.47;;;3.07;;
11443;SDS011;5778;47.856;12.154;2023-06-04T08:14:05;4.93;;;3.40;;
11443;SDS011;5778;47.856;12.154;2023-06-04T08:16:32;4.17;;;3.10;;
11443;SDS011;5778;47.856;12.154;2023-06-04T08:18:58;5.87;;;3.23;;
11443;SDS011;5778;47.856;12.154;2023-06-04T08:21:26;4.03;;;3.57;;
11443;SDS011;5778;47.856;12.154;2023-06-04T08:23:53;4.67;;;3.20;;
11443;SDS011;5778;47.856;12.154;2023-06-04T08:26:20;4.70;;;2.93;;
11443;SDS011;5778;47.856;12.154;2023-06-04T08:28:48;3.90;;;3.07;;
11443;SDS011;5778;47.856;12.154;2023-06-04T08:31:17;3.80;;;3.30;;
11443;SDS011;5778;47.856;12.154;2023-06-04T08:33:44;3.80;;;3.30;;
11443;SDS011;5778;47.856;12.154;2023-06-04T08:36:11;5.23;;;3.17;;
11443;SDS011;5778;47.856;12.154;2023-06-04T08:38:38;3.83;;;3.10;;
11443;SDS011;5778;47.856;12.154;2023-06-04T08:41:07;2.60;;;2.40;;
11443;SDS011;5778;47.856;12.154;2023-06-04T08:43:38;2.83;;;2.63;;
11443;SDS011;5778;47.856;12.154;2023-06-04T08:46:09;6.47;;;3.07;;
11443;SDS011;5778;47.856;12.154;2023-06-04T08:48:37;3.93;;;2.67;;
11443;SDS011;5778;47.856;12.154;2023-06-04T08:51:05;4.03;;;2.90;;
11443;SDS011;5778;47.856;12.154;2023-06-04T08:53:34;3.63;;;2.70;;
11443;SDS011;5778;47.856;12.154;2023-06-04T08:56:01;2.70;;;2.50;;
11443;SDS011;5778;47.856;12.154;2023-06-04T08:58:30;4.23;;;2.80;;
11443;SDS011;5778;47.856;12.154;2023-06-04T09:00:57;4.60;;;2.60;;
11443;SDS011;5778;47.856;12.154;2023-06-04T09:03:25;6.93;;;2.37;;
11443;SDS011;5778;47.856;12.154;2023-06-04T09:05:54;3.77;;;2.47;;
11443;SDS011;5778;47.856;12.154;2023-06-04T09:08:23;3.07;;;2.27;;
11443;SDS011;5778;47.856;12.154;2023-06-04T09:10:51;2.90;;;2.37;;
11443;SDS011;5778;47.856;12.154;2023-06-04T09:13:21;4.40;;;2.60;;
11443;SDS011;5778;47.856;12.154;2023-06-04T09:15:58;3.00;;;2.70;;
11443;SDS011;5778;47.856;12.154;2023-06-04T09:18:26;3.90;;;2.63;;
11443;SDS011;5778;47.856;12.154;2023-06-04T09:23:37;2.67;;;2.40;;
11443;SDS011;5778;47.856;12.154;2023-06-04T09:26:10;2.83;;;2.50;;
11443;SDS011;5778;47.856;12.154;2023-06-04T09:28:39;3.57;;;2.90;;
11443;SDS011;5778;47.856;12.154;2023-06-04T09:31:07;3.33;;;2.50;;
11443;SDS011;5778;47.856;12.154;2023-06-04T09:33:42;4.03;;;2.57;;
11443;SDS011;5778;47.856;12.154;2023-06-04T09:36:11;2.77;;;2.20;;
11443;SDS011;5778;47.856;12.154;2023-06-04T09:38:39;2.67;;;2.47;;
11443;SDS011;5778;47.856;12.154;2023-06-04T09:41:13;4.27;;;2.47;;
11443;SDS011;5778;47.856;12.154;2023-06-04T09:43:40;3.13;;;2.20;;
11443;SDS011;5778;47.856;12.154;2023-06-04T09:46:10;2.67;;;2.17;;
11443;SDS011;5778;47.856;12.154;2023-06-04T09:48:38;2.60;;;2.40;;
11443;SDS011;5778;47.856;12.154;2023-06-04T09:51:06;2.43;;;2.30;;
11443;SDS011;5778;47.856;12.154;2023-06-04T09:53:35;3.57;;;2.50;;
11443;SDS011;5778;47.856;12.154;2023-06-04T09:56:03;3.67;;;2.50;;
11443;SDS011;5778;47.856;12.154;2023-06-04T09:58:31;4.27;;;2.27;;
11443;SDS011;5778;47.856;12.154;2023-06-04T10:01:00;4.10;;;2.60;;
11443;SDS011;5778;47.856;12.154;2023-06-04T10:03:32;3.10;;;2.50;;
11443;SDS011;5778;47.856;12.154;2023-06-04T10:06:01;6.67;;;2.70;;
11443;SDS011;5778;47.856;12.154;2023-06-04T10:08:30;2.80;;;2.47;;
11443;SDS011;5778;47.856;12.154;2023-06-04T10:11:00;2.93;;;2.63;;
11443;SDS011;5778;47.856;12.154;2023-06-04T10:13:31;2.83;;;2.50;;
11443;SDS011;5778;47.856;12.154;2023-06-04T10:16:05;3.63;;;2.53;;
11443;SDS011;5778;47.856;12.154;2023-06-04T10:18:33;3.80;;;2.60;;
11443;SDS011;5778;47.856;12.154;2023-06-04T10:21:01;3.27;;;2.53;;
11443;SDS011;5778;47.856;12.154;2023-06-04T10:23:28;2.70;;;2.50;;
11443;SDS011;5778;47.856;12.154;2023-06-04T10:25:56;3.53;;;2.30;;
11443;SDS011;5778;47.856;12.154;2023-06-04T10:28:25;3.83;;;2.40;;
11443;SDS011;5778;47.856;12.154;2023-06-04T10:30:53;5.13;;;2.60;;
11443;SDS011;5778;47.856;12.154;2023-06-04T10:33:20;4.23;;;2.60;;
11443;SDS011;5778;47.856;12.154;2023-06-04T10:35:49;3.37;;;2.17;;
11443;SDS011;5778;47.856;12.154;2023-06-04T10:38:17;2.30;;;2.10;;
11443;SDS011;5778;47.856;12.154;2023-06-04T10:40:45;4.27;;;2.30;;
11443;SDS011;5778;47.856;12.154;2023-06-04T10:43:13;4.87;;;2.77;;
11443;SDS011;5778;47.856;12.154;2023-06-04T10:45:43;3.20;;;2.50;;
11443;SDS011;5778;47.856;12.154;2023-06-04T10:48:12;3.30;;;2.30;;
11443;SDS011;5778;47.856;12.154;2023-06-04T10:50:49;2.57;;;2.20;;
11443;SDS011;5778;47.856;12.154;2023-06-04T10:53:17;3.53;;;2.17;;
11443;SDS011;5778;47.856;12.154;2023-06-04T10:55:47;2.10;;;1.90;;
11443;SDS011;5778;47.856;12.154;2023-06-04T10:58:14;2.22;;;2.00;;
11443;SDS011;5778;47.856;12.154;2023-06-04T11:00:44;5.40;;;2.53;;
11443;SDS011;5778;47.856;12.154;2023-06-04T11:03:14;2.70;;;2.50;;
11443;SDS011;5778;47.856;12.154;2023-06-04T11:05:42;3.37;;;2.20;;
11443;SDS011;5778;47.856;12.154;2023-06-04T11:08:11;2.53;;;2.08;;
11443;SDS011;5778;47.856;12.154;2023-06-04T11:10:40;3.47;;;2.38;;
11443;SDS011;5778;47.856;12.154;2023-06-04T11:13:08;4.70;;;2.50;;
11443;SDS011;5778;47.856;12.154;2023-06-04T11:15:38;3.50;;;2.58;;
11443;SDS011;5778;47.856;12.154;2023-06-04T11:18:08;2.97;;;2.28;;
11443;SDS011;5778;47.856;12.154;2023-06-04T11:20:39;4.60;;;2.55;;
11443;SDS011;5778;47.856;12.154;2023-06-04T11:23:07;3.38;;;2.78;;
11443;SDS011;5778;47.856;12.154;2023-06-04T11:25:34;2.60;;;2.40;;
11443;SDS011;5778;47.856;12.154;2023-06-04T11:28:01;3.23;;;2.60;;
11443;SDS011;5778;47.856;12.154;2023-06-04T11:30:28;2.20;;;2.10;;
11443;SDS011;5778;47.856;12.154;2023-06-04T11:33:02;4.95;;;2.30;;
11443;SDS011;5778;47.856;12.154;2023-06-04T11:35:32;2.95;;;2.40;;
11443;SDS011;5778;47.856;12.154;2023-06-04T11:38:06;3.78;;;2.40;;
11443;SDS011;5778;47.856;12.154;2023-06-04T11:40:33;2.70;;;2.50;;
11443;SDS011;5778;47.856;12.154;2023-06-04T11:43:00;3.92;;;2.78;;
11443;SDS011;5778;47.856;12.154;2023-06-04T11:45:29;4.10;;;2.53;;
11443;SDS011;5778;47.856;12.154;2023-06-04T11:47:56;2.58;;;2.38;;
11443;SDS011;5778;47.856;12.154;2023-06-04T11:50:26;3.20;;;2.60;;
11443;SDS011;5778;47.856;12.154;2023-06-04T11:52:56;2.90;;;2.70;;
11443;SDS011;5778;47.856;12.154;2023-06-04T11:55:23;4.43;;;2.50;;
11443;SDS011;5778;47.856;12.154;2023-06-04T11:57:50;5.13;;;2.47;;
11443;SDS011;5778;47.856;12.154;2023-06-04T12:00:18;3.42;;;2.63;;
11443;SDS011;5778;47.856;12.154;2023-06-04T12:02:49;3.28;;;2.97;;
11443;SDS011;5778;47.856;12.154;2023-06-04T12:05:17;2.95;;;2.30;;
11443;SDS011;5778;47.856;12.154;2023-06-04T12:07:45;2.50;;;2.30;;
11443;SDS011;5778;47.856;12.154;2023-06-04T12:10:15;3.00;;;2.47;;
11443;SDS011;5778;47.856;12.154;2023-06-04T12:12:42;3.75;;;2.60;;
11443;SDS011;5778;47.856;12.154;2023-06-04T12:15:09;2.53;;;2.33;;
11443;SDS011;5778;47.856;12.154;2023-06-04T12:17:37;3.47;;;2.40;;
11443;SDS011;5778;47.856;12.154;2023-06-04T12:20:04;3.03;;;2.30;;
11443;SDS011;5778;47.856;12.154;2023-06-04T12:22:33;3.00;;;2.60;;
11443;SDS011;5778;47.856;12.154;2023-06-04T12:25:10;2.60;;;2.40;;
11443;SDS011;5778;47.856;12.154;2023-06-04T12:27:46;3.47;;;2.85;;
11443;SDS011;5778;47.856;12.154;2023-06-04T12:30:13;2.80;;;2.50;;
11443;SDS011;5778;47.856;12.154;2023-06-04T12:32:41;2.60;;;2.40;;
11443;SDS011;5778;47.856;12.154;2023-06-04T12:35:09;4.53;;;2.50;;
11443;SDS011;5778;47.856;12.154;2023-06-04T12:37:35;3.72;;;2.70;;
11443;SDS011;5778;47.856;12.154;2023-06-04T12:40:03;3.72;;;2.65;;
11443;SDS011;5778;47.856;12.154;2023-06-04T12:42:31;4.15;;;2.65;;
11443;SDS011;5778;47.856;12.154;2023-06-04T12:45:00;2.70;;;2.22;;
11443;SDS011;5778;47.856;12.154;2023-06-04T12:47:27;3.17;;;2.50;;
11443;SDS011;5778;47.856;12.154;2023-06-04T12:49:54;2.65;;;2.45;;
11443;SDS011;5778;47.856;12.154;2023-06-04T12:52:20;2.83;;;2.58;;
11443;SDS011;5778;47.856;12.154;2023-06-04T12:54:47;2.83;;;2.60;;
11443;SDS011;5778;47.856;12.154;2023-06-04T12:57:14;3.70;;;2.40;;
11443;SDS011;5778;47.856;12.154;2023-06-04T12:59:41;2.78;;;2.58;;
11443;SDS011;5778;47.856;12.154;2023-06-04T13:02:09;3.38;;;2.40;;
11443;SDS011;5778;47.856;12.154;2023-06-04T13:04:36;5.20;;;2.75;;
11443;SDS011;5778;47.856;12.154;2023-06-04T13:07:03;4.70;;;2.97;;
11443;SDS011;5778;47.856;12.154;2023-06-04T13:09:30;2.95;;;2.58;;
11443;SDS011;5778;47.856;12.154;2023-06-04T13:11:57;2.92;;;2.40;;
11443;SDS011;5778;47.856;12.154;2023-06-04T13:14:24;3.00;;;2.80;;
11443;SDS011;5778;47.856;12.154;2023-06-04T13:16:51;2.78;;;2.50;;
11443;SDS011;5778;47.856;12.154;2023-06-04T13:19:19;3.28;;;2.97;;
11443;SDS011;5778;47.856;12.154;2023-06-04T13:21:46;4.03;;;2.80;;
11443;SDS011;5778;47.856;12.154;2023-06-04T13:24:14;2.75;;;2.45;;
11443;SDS011;5778;47.856;12.154;2023-06-04T13:26:41;5.10;;;2.53;;
11443;SDS011;5778;47.856;12.154;2023-06-04T13:29:08;5.18;;;2.90;;
11443;SDS011;5778;47.856;12.154;2023-06-04T13:31:35;2.75;;;2.38;;
11443;SDS011;5778;47.856;12.154;2023-06-04T13:34:03;3.13;;;2.83;;
11443;SDS011;5778;47.856;12.154;2023-06-04T13:36:32;4.35;;;2.58;;
11443;SDS011;5778;47.856;12.154;2023-06-04T13:38:58;3.75;;;2.65;;
11443;SDS011;5778;47.856;12.154;2023-06-04T13:41:25;3.90;;;2.25;;
11443;SDS011;5778;47.856;12.154;2023-06-04T13:43:52;4.65;;;2.60;;
11443;SDS011;5778;47.856;12.154;2023-06-04T13:46:20;3.70;;;2.85;;
11443;SDS011;5778;47.856;12.154;2023-06-04T13:48:47;3.25;;;2.58;;
11443;SDS011;5778;47.856;12.154;2023-06-04T13:51:14;3.85;;;2.55;;
11443;SDS011;5778;47.856;12.154;2023-06-04T13:53:42;4.10;;;2.90;;
11443;SDS011;5778;47.856;12.154;2023-06-04T13:56:09;3.50;;;2.60;;
11443;SDS011;5778;47.856;12.154;2023-06-04T13:58:37;3.58;;;2.47;;
11443;SDS011;5778;47.856;12.154;2023-06-04T14:01:04;3.15;;;2.83;;
11443;SDS011;5778;47.856;12.154;2023-06-04T14:03:32;3.22;;;2.40;;
11443;SDS011;5778;47.856;12.154;2023-06-04T14:05:59;4.70;;;2.78;;
11443;SDS011;5778;47.856;12.154;2023-06-04T14:08:26;3.15;;;2.28;;
11443;SDS011;5778;47.856;12.154;2023-06-04T14:10:55;3.92;;;2.20;;
11443;SDS011;5778;47.856;12.154;2023-06-04T14:13:22;2.63;;;2.30;;
11443;SDS011;5778;47.856;12.154;2023-06-04T14:15:49;4.35;;;2.42;;
11443;SDS011;5778;47.856;12.154;2023-06-04T14:18:16;3.00;;;2.67;;
11443;SDS011;5778;47.856;12.154;2023-06-04T14:20:43;2.75;;;2.50;;
11443;SDS011;5778;47.856;12.154;2023-06-04T14:23:10;2.67;;;2.47;;
11443;SDS011;5778;47.856;12.154;2023-06-04T14:25:37;3.25;;;2.47;;
11443;SDS011;5778;47.856;12.154;2023-06-04T14:28:05;3.00;;;2.70;;
11443;SDS011;5778;47.856;12.154;2023-06-04T14:30:32;3.75;;;2.80;;
11443;SDS011;5778;47.856;12.154;2023-06-04T14:32:59;3.38;;;2.70;;
11443;SDS011;5778;47.856;12.154;2023-06-04T14:35:26;3.38;;;2.80;;
11443;SDS011;5778;47.856;12.154;2023-06-04T14:37:53;4.05;;;2.67;;
11443;SDS011;5778;47.856;12.154;2023-06-04T14:40:19;3.03;;;2.40;;
11443;SDS011;5778;47.856;12.154;2023-06-04T14:42:46;3.13;;;2.85;;
11443;SDS011;5778;47.856;12.154;2023-06-04T14:45:14;2.80;;;2.60;;
11443;SDS011;5778;47.856;12.154;2023-06-04T14:47:41;3.72;;;2.30;;
11443;SDS011;5778;47.856;12.154;2023-06-04T14:50:08;2.35;;;2.13;;
11443;SDS011;5778;47.856;12.154;2023-06-04T14:52:36;3.78;;;2.60;;
11443;SDS011;5778;47.856;12.154;2023-06-04T14:55:03;3.70;;;2.58;;
11443;SDS011;5778;47.856;12.154;2023-06-04T14:57:30;4.15;;;2.50;;